sensor_id;sensor_type;location;lat;lon;timestamp;temperature;humidity
25058;DHT22;13057;50.978;11.034;2022-08-19T00:01:16;21.90;99.90
25058;DHT22;13057;50.978;11.034;2022-08-19T00:03:42;21.80;99.90
25058;DHT22;13057;50.978;11.034;2022-08-19T00:06:08;21.90;99.90
25058;DHT22;13057;50.978;11.034;2022-08-19T00:08:35;21.80;99.90
25058;DHT22;13057;50.978;11.034;2022-08-19T00:11:01;21.80;99.90
25058;DHT22;13057;50.978;11.034;2022-08-19T00:13:27;21.90;99.90
25058;DHT22;13057;50.978;11.034;2022-08-19T00:15:55;21.90;99.90
25058;DHT22;13057;50.978;11.034;2022-08-19T00:18:21;21.90;99.90
25058;DHT22;13057;50.978;11.034;2022-08-19T00:20:47;21.90;99.90
25058;DHT22;13057;50.978;11.034;2022-08-19T00:23:13;21.90;99.90
25058;DHT22;13057;50.978;11.034;2022-08-19T00:25:39;21.90;99.90
25058;DHT22;13057;50.978;11.034;2022-08-19T00:28:05;21.80;99.90
25058;DHT22;13057;50.978;11.034;2022-08-19T00:30:31;21.80;99.90
25058;DHT22;13057;50.978;11.034;2022-08-19T00:32:57;21.80;99.90
25058;DHT22;13057;50.978;11.034;2022-08-19T00:35:24;21.80;99.90
25058;DHT22;13057;50.978;11.034;2022-08-19T00:37:50;21.70;99.90
25058;DHT22;13057;50.978;11.034;2022-08-19T00:40:17;21.70;99.90
25058;DHT22;13057;50.978;11.034;2022-08-19T00:42:43;21.70;99.90
25058;DHT22;13057;50.978;11.034;2022-08-19T00:45:16;21.70;99.90
25058;DHT22;13057;50.978;11.034;2022-08-19T00:47:43;21.60;99.90
25058;DHT22;13057;50.978;11.034;2022-08-19T00:50:11;21.60;99.90
25058;DHT22;13057;50.978;11.034;2022-08-19T00:52:42;21.60;99.90
25058;DHT22;13057;50.978;11.034;2022-08-19T00:55:14;21.60;99.90
25058;DHT22;13057;50.978;11.034;2022-08-19T00:57:44;21.60;99.90
25058;DHT22;13057;50.978;11.034;2022-08-19T01:00:16;21.50;99.90
25058;DHT22;13057;50.978;11.034;2022-08-19T01:02:43;21.40;99.90
25058;DHT22;13057;50.978;11.034;2022-08-19T01:05:13;21.40;99.90
25058;DHT22;13057;50.978;11.034;2022-08-19T01:07:40;21.40;99.90
25058;DHT22;13057;50.978;11.034;2022-08-19T01:10:11;21.40;99.90
25058;DHT22;13057;50.978;11.034;2022-08-19T01:12:38;21.40;99.90
25058;DHT22;13057;50.978;11.034;2022-08-19T01:15:07;21.40;99.90
25058;DHT22;13057;50.978;11.034;2022-08-19T01:17:36;21.40;99.90
25058;DHT22;13057;50.978;11.034;2022-08-19T01:20:04;21.40;99.90
25058;DHT22;13057;50.978;11.034;2022-08-19T01:22:38;21.40;99.90
25058;DHT22;13057;50.978;11.034;2022-08-19T01:25:07;21.30;99.90
25058;DHT22;13057;50.978;11.034;2022-08-19T01:27:38;21.30;99.90
25058;DHT22;13057;50.978;11.034;2022-08-19T01:30:05;21.30;99.90
25058;DHT22;13057;50.978;11.034;2022-08-19T01:32:32;21.30;99.90
25058;DHT22;13057;50.978;11.034;2022-08-19T01:34:58;21.30;99.90
25058;DHT22;13057;50.978;11.034;2022-08-19T01:37:28;21.20;99.90
25058;DHT22;13057;50.978;11.034;2022-08-19T01:39:54;21.20;99.90
25058;DHT22;13057;50.978;11.034;2022-08-19T01:42:21;21.10;99.90
25058;DHT22;13057;50.978;11.034;2022-08-19T01:44:47;21.10;99.90
25058;DHT22;13057;50.978;11.034;2022-08-19T01:47:13;21.10;99.90
25058;DHT22;13057;50.978;11.034;2022-08-19T01:49:39;21.10;99.90
25058;DHT22;13057;50.978;11.034;2022-08-19T01:52:05;21.10;99.90
25058;DHT22;13057;50.978;11.034;2022-08-19T01:54:32;21.10;99.90
25058;DHT22;13057;50.978;11.034;2022-08-19T01:57:03;21.20;99.90
25058;DHT22;13057;50.978;11.034;2022-08-19T01:59:30;21.20;99.90
25058;DHT22;13057;50.978;11.034;2022-08-19T02:01:58;21.20;99.90
25058;DHT22;13057;50.978;11.034;2022-08-19T02:04:23;21.20;99.90
25058;DHT22;13057;50.978;11.034;2022-08-19T02:06:50;21.20;99.90
25058;DHT22;13057;50.978;11.034;2022-08-19T02:09:16;21.10;99.90
25058;DHT22;13057;50.978;11.034;2022-08-19T02:11:42;21.10;99.90
25058;DHT22;13057;50.978;11.034;2022-08-19T02:14:08;21.10;99.90
25058;DHT22;13057;50.978;11.034;2022-08-19T02:16:35;21.00;99.90
25058;DHT22;13057;50.978;11.034;2022-08-19T02:19:01;21.00;99.90
25058;DHT22;13057;50.978;11.034;2022-08-19T02:21:29;21.00;99.90
25058;DHT22;13057;50.978;11.034;2022-08-19T02:23:55;21.00;99.90
25058;DHT22;13057;50.978;11.034;2022-08-19T02:26:21;21.10;99.90
25058;DHT22;13057;50.978;11.034;2022-08-19T02:28:47;21.10;99.90
25058;DHT22;13057;50.978;11.034;2022-08-19T02:31:19;21.00;99.90
25058;DHT22;13057;50.978;11.034;2022-08-19T02:33:46;21.00;99.90
25058;DHT22;13057;50.978;11.034;2022-08-19T02:36:14;21.00;99.90
25058;DHT22;13057;50.978;11.034;2022-08-19T02:38:40;21.00;99.90
25058;DHT22;13057;50.978;11.034;2022-08-19T02:41:14;21.00;99.90
25058;DHT22;13057;50.978;11.034;2022-08-19T02:43:40;21.00;99.90
25058;DHT22;13057;50.978;11.034;2022-08-19T02:46:16;21.10;99.90
25058;DHT22;13057;50.978;11.034;2022-08-19T02:48:43;21.00;99.90
25058;DHT22;13057;50.978;11.034;2022-08-19T02:51:16;21.10;99.90
25058;DHT22;13057;50.978;11.034;2022-08-19T02:53:42;21.00;99.90
25058;DHT22;13057;50.978;11.034;2022-08-19T02:56:07;21.00;99.90
25058;DHT22;13057;50.978;11.034;2022-08-19T02:58:33;21.00;99.90
25058;DHT22;13057;50.978;11.034;2022-08-19T03:01:00;21.00;99.90
25058;DHT22;13057;50.978;11.034;2022-08-19T03:03:26;21.00;99.90
25058;DHT22;13057;50.978;11.034;2022-08-19T03:05:51;21.00;99.90
25058;DHT22;13057;50.978;11.034;2022-08-19T03:08:17;21.00;99.90
25058;DHT22;13057;50.978;11.034;2022-08-19T03:10:46;21.00;99.90
25058;DHT22;13057;50.978;11.034;2022-08-19T03:13:14;21.00;99.90
25058;DHT22;13057;50.978;11.034;2022-08-19T03:15:42;20.90;99.90
25058;DHT22;13057;50.978;11.034;2022-08-19T03:18:09;20.90;99.90
25058;DHT22;13057;50.978;11.034;2022-08-19T03:20:40;20.90;99.90
25058;DHT22;13057;50.978;11.034;2022-08-19T03:23:07;20.90;99.90
25058;DHT22;13057;50.978;11.034;2022-08-19T03:25:37;20.90;99.90
25058;DHT22;13057;50.978;11.034;2022-08-19T03:28:04;20.90;99.90
25058;DHT22;13057;50.978;11.034;2022-08-19T03:30:30;20.90;99.90
25058;DHT22;13057;50.978;11.034;2022-08-19T03:32:55;20.90;99.90
25058;DHT22;13057;50.978;11.034;2022-08-19T03:35:21;21.00;99.90
25058;DHT22;13057;50.978;11.034;2022-08-19T03:37:47;21.00;99.90
25058;DHT22;13057;50.978;11.034;2022-08-19T03:40:13;21.00;99.90
25058;DHT22;13057;50.978;11.034;2022-08-19T03:42:39;21.00;99.90
25058;DHT22;13057;50.978;11.034;2022-08-19T03:45:08;21.00;99.90
25058;DHT22;13057;50.978;11.034;2022-08-19T03:47:36;21.00;99.90
25058;DHT22;13057;50.978;11.034;2022-08-19T03:50:03;21.00;99.90
25058;DHT22;13057;50.978;11.034;2022-08-19T03:52:29;21.00;99.90
25058;DHT22;13057;50.978;11.034;2022-08-19T03:54:55;21.00;99.90
25058;DHT22;13057;50.978;11.034;2022-08-19T03:57:21;21.10;99.90
25058;DHT22;13057;50.978;11.034;2022-08-19T03:59:47;21.00;99.90
25058;DHT22;13057;50.978;11.034;2022-08-19T04:02:13;21.00;99.90
25058;DHT22;13057;50.978;11.034;2022-08-19T04:04:41;21.10;99.90
25058;DHT22;13057;50.978;11.034;2022-08-19T04:07:09;21.00;99.90
25058;DHT22;13057;50.978;11.034;2022-08-19T04:09:35;21.00;99.90
25058;DHT22;13057;50.978;11.034;2022-08-19T04:12:03;21.10;99.90
25058;DHT22;13057;50.978;11.034;2022-08-19T04:14:31;21.10;99.90
25058;DHT22;13057;50.978;11.034;2022-08-19T04:16:58;21.10;99.90
25058;DHT22;13057;50.978;11.034;2022-08-19T04:19:25;21.10;99.90
25058;DHT22;13057;50.978;11.034;2022-08-19T04:21:53;21.10;99.90
25058;DHT22;13057;50.978;11.034;2022-08-19T04:24:20;21.10;99.90
25058;DHT22;13057;50.978;11.034;2022-08-19T04:26:47;21.10;99.90
25058;DHT22;13057;50.978;11.034;2022-08-19T04:29:18;21.10;99.90
25058;DHT22;13057;50.978;11.034;2022-08-19T04:31:45;21.00;99.90
25058;DHT22;13057;50.978;11.034;2022-08-19T04:34:13;21.00;99.90
25058;DHT22;13057;50.978;11.034;2022-08-19T04:36:42;21.00;99.90
25058;DHT22;13057;50.978;11.034;2022-08-19T04:39:14;21.00;99.90
25058;DHT22;13057;50.978;11.034;2022-08-19T04:41:40;20.90;99.90
25058;DHT22;13057;50.978;11.034;2022-08-19T04:44:26;20.90;99.90
25058;DHT22;13057;50.978;11.034;2022-08-19T04:46:52;21.00;99.90
25058;DHT22;13057;50.978;11.034;2022-08-19T04:49:21;21.00;99.90
25058;DHT22;13057;50.978;11.034;2022-08-19T04:51:49;21.00;99.90
25058;DHT22;13057;50.978;11.034;2022-08-19T04:54:17;20.90;99.90
25058;DHT22;13057;50.978;11.034;2022-08-19T04:56:44;21.00;99.90
25058;DHT22;13057;50.978;11.034;2022-08-19T04:59:10;21.00;99.90
25058;DHT22;13057;50.978;11.034;2022-08-19T05:01:36;21.00;99.90
25058;DHT22;13057;50.978;11.034;2022-08-19T05:04:05;21.00;99.90
25058;DHT22;13057;50.978;11.034;2022-08-19T05:06:32;21.00;99.90
25058;DHT22;13057;50.978;11.034;2022-08-19T05:09:00;21.00;99.90
25058;DHT22;13057;50.978;11.034;2022-08-19T05:11:28;21.00;99.90
25058;DHT22;13057;50.978;11.034;2022-08-19T05:13:57;21.00;99.90
25058;DHT22;13057;50.978;11.034;2022-08-19T05:16:24;20.90;99.90
25058;DHT22;13057;50.978;11.034;2022-08-19T05:18:50;20.90;99.90
25058;DHT22;13057;50.978;11.034;2022-08-19T05:21:29;21.00;99.90
25058;DHT22;13057;50.978;11.034;2022-08-19T05:24:07;20.90;99.90
25058;DHT22;13057;50.978;11.034;2022-08-19T05:26:36;20.90;99.90
25058;DHT22;13057;50.978;11.034;2022-08-19T05:29:02;21.00;99.90
25058;DHT22;13057;50.978;11.034;2022-08-19T05:31:29;21.00;99.90
25058;DHT22;13057;50.978;11.034;2022-08-19T05:33:55;21.00;99.90
25058;DHT22;13057;50.978;11.034;2022-08-19T05:36:24;21.00;99.90
25058;DHT22;13057;50.978;11.034;2022-08-19T05:38:50;20.90;99.90
25058;DHT22;13057;50.978;11.034;2022-08-19T05:41:19;21.00;99.90
25058;DHT22;13057;50.978;11.034;2022-08-19T05:43:45;21.00;99.90
25058;DHT22;13057;50.978;11.034;2022-08-19T05:46:17;21.00;99.90
25058;DHT22;13057;50.978;11.034;2022-08-19T05:48:43;21.00;99.90
25058;DHT22;13057;50.978;11.034;2022-08-19T05:51:09;21.00;99.90
25058;DHT22;13057;50.978;11.034;2022-08-19T05:53:36;21.00;99.90
25058;DHT22;13057;50.978;11.034;2022-08-19T05:56:05;20.90;99.90
25058;DHT22;13057;50.978;11.034;2022-08-19T05:58:30;20.90;99.90
25058;DHT22;13057;50.978;11.034;2022-08-19T06:00:58;20.90;99.90
25058;DHT22;13057;50.978;11.034;2022-08-19T06:03:30;20.90;99.90
25058;DHT22;13057;50.978;11.034;2022-08-19T06:05:57;21.00;99.90
25058;DHT22;13057;50.978;11.034;2022-08-19T06:08:25;20.90;99.90
25058;DHT22;13057;50.978;11.034;2022-08-19T06:10:52;20.90;99.90
25058;DHT22;13057;50.978;11.034;2022-08-19T06:13:18;20.90;99.90
25058;DHT22;13057;50.978;11.034;2022-08-19T06:15:45;20.90;99.90
25058;DHT22;13057;50.978;11.034;2022-08-19T06:18:13;20.90;99.90
25058;DHT22;13057;50.978;11.034;2022-08-19T06:20:40;20.90;99.90
25058;DHT22;13057;50.978;11.034;2022-08-19T06:23:06;20.90;99.90
25058;DHT22;13057;50.978;11.034;2022-08-19T06:25:32;20.90;99.90
25058;DHT22;13057;50.978;11.034;2022-08-19T06:27:58;20.90;99.90
25058;DHT22;13057;50.978;11.034;2022-08-19T06:30:24;21.00;99.90
25058;DHT22;13057;50.978;11.034;2022-08-19T06:32:50;21.00;99.90
25058;DHT22;13057;50.978;11.034;2022-08-19T06:35:16;20.90;99.90
25058;DHT22;13057;50.978;11.034;2022-08-19T06:37:42;21.00;99.90
25058;DHT22;13057;50.978;11.034;2022-08-19T06:40:10;21.00;99.90
25058;DHT22;13057;50.978;11.034;2022-08-19T06:42:37;20.90;99.90
25058;DHT22;13057;50.978;11.034;2022-08-19T06:45:05;20.90;99.90
25058;DHT22;13057;50.978;11.034;2022-08-19T06:47:34;20.90;99.90
25058;DHT22;13057;50.978;11.034;2022-08-19T06:50:01;20.90;99.90
25058;DHT22;13057;50.978;11.034;2022-08-19T06:52:30;20.90;99.90
25058;DHT22;13057;50.978;11.034;2022-08-19T06:54:56;20.90;99.90
25058;DHT22;13057;50.978;11.034;2022-08-19T06:57:24;20.90;99.90
25058;DHT22;13057;50.978;11.034;2022-08-19T06:59:50;20.90;99.90
25058;DHT22;13057;50.978;11.034;2022-08-19T07:02:16;20.90;99.90
25058;DHT22;13057;50.978;11.034;2022-08-19T07:04:42;20.90;99.90
25058;DHT22;13057;50.978;11.034;2022-08-19T07:07:10;20.90;99.90
25058;DHT22;13057;50.978;11.034;2022-08-19T07:09:39;20.90;99.90
25058;DHT22;13057;50.978;11.034;2022-08-19T07:12:07;21.00;99.90
25058;DHT22;13057;50.978;11.034;2022-08-19T07:14:38;21.10;99.90
25058;DHT22;13057;50.978;11.034;2022-08-19T07:17:08;21.20;99.90
25058;DHT22;13057;50.978;11.034;2022-08-19T07:19:37;21.30;99.90
25058;DHT22;13057;50.978;11.034;2022-08-19T07:22:06;21.50;99.90
25058;DHT22;13057;50.978;11.034;2022-08-19T07:24:32;21.50;99.90
25058;DHT22;13057;50.978;11.034;2022-08-19T07:27:01;21.60;99.90
25058;DHT22;13057;50.978;11.034;2022-08-19T07:29:30;21.70;99.90
25058;DHT22;13057;50.978;11.034;2022-08-19T07:31:56;21.80;99.90
25058;DHT22;13057;50.978;11.034;2022-08-19T07:34:25;21.80;99.90
25058;DHT22;13057;50.978;11.034;2022-08-19T07:36:54;21.90;99.90
25058;DHT22;13057;50.978;11.034;2022-08-19T07:39:26;22.00;99.90
25058;DHT22;13057;50.978;11.034;2022-08-19T07:41:54;21.90;99.90
25058;DHT22;13057;50.978;11.034;2022-08-19T07:44:21;22.00;99.90
25058;DHT22;13057;50.978;11.034;2022-08-19T07:46:52;22.10;99.90
25058;DHT22;13057;50.978;11.034;2022-08-19T07:49:19;22.10;99.90
25058;DHT22;13057;50.978;11.034;2022-08-19T07:51:48;22.10;99.90
25058;DHT22;13057;50.978;11.034;2022-08-19T07:54:14;22.00;99.90
25058;DHT22;13057;50.978;11.034;2022-08-19T07:56:40;22.00;99.90
25058;DHT22;13057;50.978;11.034;2022-08-19T07:59:09;22.00;99.90
25058;DHT22;13057;50.978;11.034;2022-08-19T08:01:36;22.00;99.90
25058;DHT22;13057;50.978;11.034;2022-08-19T08:04:02;22.10;99.90
25058;DHT22;13057;50.978;11.034;2022-08-19T08:06:40;22.20;99.90
25058;DHT22;13057;50.978;11.034;2022-08-19T08:09:23;22.20;99.90
25058;DHT22;13057;50.978;11.034;2022-08-19T08:11:56;22.20;99.90
25058;DHT22;13057;50.978;11.034;2022-08-19T08:14:27;22.20;99.90
25058;DHT22;13057;50.978;11.034;2022-08-19T08:16:53;22.20;99.90
25058;DHT22;13057;50.978;11.034;2022-08-19T08:19:21;22.20;99.90
25058;DHT22;13057;50.978;11.034;2022-08-19T08:21:49;22.20;99.90
25058;DHT22;13057;50.978;11.034;2022-08-19T08:24:16;22.20;99.80
25058;DHT22;13057;50.978;11.034;2022-08-19T08:26:42;22.30;99.80
25058;DHT22;13057;50.978;11.034;2022-08-19T08:29:10;22.30;99.40
25058;DHT22;13057;50.978;11.034;2022-08-19T08:31:40;22.20;99.20
25058;DHT22;13057;50.978;11.034;2022-08-19T08:34:07;22.20;99.30
25058;DHT22;13057;50.978;11.034;2022-08-19T08:36:37;22.20;99.00
25058;DHT22;13057;50.978;11.034;2022-08-19T08:39:09;22.10;99.30
25058;DHT22;13057;50.978;11.034;2022-08-19T08:41:53;22.00;99.40
25058;DHT22;13057;50.978;11.034;2022-08-19T08:44:39;22.00;99.70
25058;DHT22;13057;50.978;11.034;2022-08-19T08:47:13;22.00;99.70
25058;DHT22;13057;50.978;11.034;2022-08-19T08:49:46;22.00;99.70
25058;DHT22;13057;50.978;11.034;2022-08-19T08:52:21;22.00;99.70
25058;DHT22;13057;50.978;11.034;2022-08-19T08:54:52;22.00;99.70
25058;DHT22;13057;50.978;11.034;2022-08-19T08:57:26;22.00;99.90
25058;DHT22;13057;50.978;11.034;2022-08-19T08:59:54;22.00;99.60
25058;DHT22;13057;50.978;11.034;2022-08-19T09:02:22;22.00;98.90
25058;DHT22;13057;50.978;11.034;2022-08-19T09:04:48;22.00;98.90
25058;DHT22;13057;50.978;11.034;2022-08-19T09:07:39;22.00;98.70
25058;DHT22;13057;50.978;11.034;2022-08-19T09:10:17;22.00;98.50
25058;DHT22;13057;50.978;11.034;2022-08-19T09:12:55;22.00;98.30
25058;DHT22;13057;50.978;11.034;2022-08-19T09:15:29;22.00;97.80
25058;DHT22;13057;50.978;11.034;2022-08-19T09:18:00;21.90;97.20
25058;DHT22;13057;50.978;11.034;2022-08-19T09:20:27;21.90;96.90
25058;DHT22;13057;50.978;11.034;2022-08-19T09:22:53;21.90;97.10
25058;DHT22;13057;50.978;11.034;2022-08-19T09:25:21;21.90;96.90
25058;DHT22;13057;50.978;11.034;2022-08-19T09:27:48;22.00;97.30
25058;DHT22;13057;50.978;11.034;2022-08-19T09:30:18;22.00;96.40
25058;DHT22;13057;50.978;11.034;2022-08-19T09:32:45;22.10;97.00
25058;DHT22;13057;50.978;11.034;2022-08-19T09:35:11;22.10;96.60
25058;DHT22;13057;50.978;11.034;2022-08-19T09:37:38;22.10;95.90
25058;DHT22;13057;50.978;11.034;2022-08-19T09:40:04;22.00;95.90
25058;DHT22;13057;50.978;11.034;2022-08-19T09:42:31;22.00;95.80
25058;DHT22;13057;50.978;11.034;2022-08-19T09:44:57;22.00;96.10
25058;DHT22;13057;50.978;11.034;2022-08-19T09:47:23;22.10;95.80
25058;DHT22;13057;50.978;11.034;2022-08-19T09:49:49;22.10;95.50
25058;DHT22;13057;50.978;11.034;2022-08-19T09:52:16;22.10;95.20
25058;DHT22;13057;50.978;11.034;2022-08-19T09:54:43;22.00;95.20
25058;DHT22;13057;50.978;11.034;2022-08-19T09:57:09;22.00;94.70
25058;DHT22;13057;50.978;11.034;2022-08-19T09:59:35;22.00;94.90
25058;DHT22;13057;50.978;11.034;2022-08-19T10:02:01;22.00;94.50
25058;DHT22;13057;50.978;11.034;2022-08-19T10:04:27;22.00;94.40
25058;DHT22;13057;50.978;11.034;2022-08-19T10:07:13;22.10;94.70
25058;DHT22;13057;50.978;11.034;2022-08-19T10:09:39;22.10;94.80
25058;DHT22;13057;50.978;11.034;2022-08-19T10:12:06;22.10;94.60
25058;DHT22;13057;50.978;11.034;2022-08-19T10:14:33;22.20;94.20
25058;DHT22;13057;50.978;11.034;2022-08-19T10:17:01;22.20;94.10
25058;DHT22;13057;50.978;11.034;2022-08-19T10:19:28;22.20;94.30
25058;DHT22;13057;50.978;11.034;2022-08-19T10:21:57;22.20;94.20
25058;DHT22;13057;50.978;11.034;2022-08-19T10:24:24;22.20;94.40
25058;DHT22;13057;50.978;11.034;2022-08-19T10:26:53;22.30;93.90
25058;DHT22;13057;50.978;11.034;2022-08-19T10:29:19;22.30;93.90
25058;DHT22;13057;50.978;11.034;2022-08-19T10:31:44;22.20;93.50
25058;DHT22;13057;50.978;11.034;2022-08-19T10:34:12;22.20;93.60
25058;DHT22;13057;50.978;11.034;2022-08-19T10:36:39;22.30;94.30
25058;DHT22;13057;50.978;11.034;2022-08-19T10:39:07;22.40;93.70
25058;DHT22;13057;50.978;11.034;2022-08-19T10:41:36;22.40;94.00
25058;DHT22;13057;50.978;11.034;2022-08-19T10:44:06;22.40;93.70
25058;DHT22;13057;50.978;11.034;2022-08-19T10:46:35;22.50;94.00
25058;DHT22;13057;50.978;11.034;2022-08-19T10:49:05;22.50;94.00
25058;DHT22;13057;50.978;11.034;2022-08-19T10:51:31;22.60;94.20
25058;DHT22;13057;50.978;11.034;2022-08-19T10:54:10;22.60;94.90
25058;DHT22;13057;50.978;11.034;2022-08-19T10:56:37;22.60;95.20
25058;DHT22;13057;50.978;11.034;2022-08-19T10:59:15;22.60;95.80
25058;DHT22;13057;50.978;11.034;2022-08-19T11:01:44;22.60;96.30
25058;DHT22;13057;50.978;11.034;2022-08-19T11:04:12;22.60;97.60
25058;DHT22;13057;50.978;11.034;2022-08-19T11:06:41;22.70;98.90
25058;DHT22;13057;50.978;11.034;2022-08-19T11:09:10;22.70;98.20
25058;DHT22;13057;50.978;11.034;2022-08-19T11:11:38;22.70;98.80
25058;DHT22;13057;50.978;11.034;2022-08-19T11:14:09;22.80;98.40
25058;DHT22;13057;50.978;11.034;2022-08-19T11:16:36;22.80;98.60
25058;DHT22;13057;50.978;11.034;2022-08-19T11:19:07;22.90;98.60
25058;DHT22;13057;50.978;11.034;2022-08-19T11:21:37;22.90;98.50
25058;DHT22;13057;50.978;11.034;2022-08-19T11:24:07;22.90;98.40
25058;DHT22;13057;50.978;11.034;2022-08-19T11:26:35;22.90;98.30
25058;DHT22;13057;50.978;11.034;2022-08-19T11:29:03;22.90;98.60
25058;DHT22;13057;50.978;11.034;2022-08-19T11:31:33;22.90;98.50
25058;DHT22;13057;50.978;11.034;2022-08-19T11:34:04;22.90;98.80
25058;DHT22;13057;50.978;11.034;2022-08-19T11:36:30;22.90;98.80
25058;DHT22;13057;50.978;11.034;2022-08-19T11:38:58;22.90;98.90
25058;DHT22;13057;50.978;11.034;2022-08-19T11:41:25;22.90;98.70
25058;DHT22;13057;50.978;11.034;2022-08-19T11:43:52;23.00;98.40
25058;DHT22;13057;50.978;11.034;2022-08-19T11:46:24;23.00;97.50
25058;DHT22;13057;50.978;11.034;2022-08-19T11:48:50;22.90;97.30
25058;DHT22;13057;50.978;11.034;2022-08-19T11:51:21;22.90;97.50
25058;DHT22;13057;50.978;11.034;2022-08-19T11:53:48;22.90;97.60
25058;DHT22;13057;50.978;11.034;2022-08-19T11:56:16;23.00;97.60
25058;DHT22;13057;50.978;11.034;2022-08-19T11:58:43;23.00;97.30
25058;DHT22;13057;50.978;11.034;2022-08-19T12:01:12;23.00;96.90
25058;DHT22;13057;50.978;11.034;2022-08-19T12:03:39;23.00;96.80
25058;DHT22;13057;50.978;11.034;2022-08-19T12:06:07;23.00;96.30
25058;DHT22;13057;50.978;11.034;2022-08-19T12:08:34;23.00;96.20
25058;DHT22;13057;50.978;11.034;2022-08-19T12:11:00;23.00;95.90
25058;DHT22;13057;50.978;11.034;2022-08-19T12:13:28;23.10;96.10
25058;DHT22;13057;50.978;11.034;2022-08-19T12:15:55;23.20;96.00
25058;DHT22;13057;50.978;11.034;2022-08-19T12:18:21;23.20;95.70
25058;DHT22;13057;50.978;11.034;2022-08-19T12:20:46;23.30;95.30
25058;DHT22;13057;50.978;11.034;2022-08-19T12:23:13;23.30;95.10
25058;DHT22;13057;50.978;11.034;2022-08-19T12:25:45;23.30;94.90
25058;DHT22;13057;50.978;11.034;2022-08-19T12:28:16;23.40;95.00
25058;DHT22;13057;50.978;11.034;2022-08-19T12:30:42;23.40;95.10
25058;DHT22;13057;50.978;11.034;2022-08-19T12:33:09;23.50;95.00
25058;DHT22;13057;50.978;11.034;2022-08-19T12:35:35;23.50;95.00
25058;DHT22;13057;50.978;11.034;2022-08-19T12:38:01;23.60;94.80
25058;DHT22;13057;50.978;11.034;2022-08-19T12:40:28;23.60;94.70
25058;DHT22;13057;50.978;11.034;2022-08-19T12:42:54;23.60;94.50
25058;DHT22;13057;50.978;11.034;2022-08-19T12:45:20;23.70;94.40
25058;DHT22;13057;50.978;11.034;2022-08-19T12:47:47;23.70;94.40
25058;DHT22;13057;50.978;11.034;2022-08-19T12:50:13;23.70;94.00
25058;DHT22;13057;50.978;11.034;2022-08-19T12:52:39;23.70;93.90
25058;DHT22;13057;50.978;11.034;2022-08-19T12:55:08;23.70;93.70
25058;DHT22;13057;50.978;11.034;2022-08-19T12:57:35;23.70;93.60
25058;DHT22;13057;50.978;11.034;2022-08-19T13:00:05;23.70;93.60
25058;DHT22;13057;50.978;11.034;2022-08-19T13:02:47;23.70;93.30
25058;DHT22;13057;50.978;11.034;2022-08-19T13:05:21;23.70;92.70
25058;DHT22;13057;50.978;11.034;2022-08-19T13:07:58;23.70;93.00
25058;DHT22;13057;50.978;11.034;2022-08-19T13:10:30;23.80;93.20
25058;DHT22;13057;50.978;11.034;2022-08-19T13:13:01;23.80;93.00
25058;DHT22;13057;50.978;11.034;2022-08-19T13:15:40;23.90;93.10
25058;DHT22;13057;50.978;11.034;2022-08-19T13:18:08;23.90;92.60
25058;DHT22;13057;50.978;11.034;2022-08-19T13:20:37;23.90;92.30
25058;DHT22;13057;50.978;11.034;2022-08-19T13:23:04;23.90;92.20
25058;DHT22;13057;50.978;11.034;2022-08-19T13:25:31;24.00;92.50
25058;DHT22;13057;50.978;11.034;2022-08-19T13:27:56;24.10;92.40
25058;DHT22;13057;50.978;11.034;2022-08-19T13:30:23;24.10;91.50
25058;DHT22;13057;50.978;11.034;2022-08-19T13:33:00;24.10;91.50
25058;DHT22;13057;50.978;11.034;2022-08-19T13:35:42;24.10;91.80
25058;DHT22;13057;50.978;11.034;2022-08-19T13:38:09;24.20;92.00
25058;DHT22;13057;50.978;11.034;2022-08-19T13:40:36;24.20;91.90
25058;DHT22;13057;50.978;11.034;2022-08-19T13:43:04;24.30;91.50
25058;DHT22;13057;50.978;11.034;2022-08-19T13:45:32;24.30;90.90
25058;DHT22;13057;50.978;11.034;2022-08-19T13:48:01;24.30;90.80
25058;DHT22;13057;50.978;11.034;2022-08-19T13:50:30;24.30;89.60
25058;DHT22;13057;50.978;11.034;2022-08-19T13:52:57;24.30;89.70
25058;DHT22;13057;50.978;11.034;2022-08-19T13:55:24;24.30;87.60
25058;DHT22;13057;50.978;11.034;2022-08-19T13:57:52;24.30;86.90
25058;DHT22;13057;50.978;11.034;2022-08-19T14:00:19;24.30;86.80
25058;DHT22;13057;50.978;11.034;2022-08-19T14:02:46;24.40;85.80
25058;DHT22;13057;50.978;11.034;2022-08-19T14:05:14;24.40;85.70
25058;DHT22;13057;50.978;11.034;2022-08-19T14:07:41;24.40;85.60
25058;DHT22;13057;50.978;11.034;2022-08-19T14:10:09;24.40;85.70
25058;DHT22;13057;50.978;11.034;2022-08-19T14:12:36;24.40;84.30
25058;DHT22;13057;50.978;11.034;2022-08-19T14:15:03;24.40;84.40
25058;DHT22;13057;50.978;11.034;2022-08-19T14:17:30;24.50;83.60
25058;DHT22;13057;50.978;11.034;2022-08-19T14:19:57;24.50;84.10
25058;DHT22;13057;50.978;11.034;2022-08-19T14:22:24;24.50;83.50
25058;DHT22;13057;50.978;11.034;2022-08-19T14:24:50;24.40;83.50
25058;DHT22;13057;50.978;11.034;2022-08-19T14:27:17;24.40;84.20
25058;DHT22;13057;50.978;11.034;2022-08-19T14:29:45;24.40;83.70
25058;DHT22;13057;50.978;11.034;2022-08-19T14:32:22;24.40;84.00
25058;DHT22;13057;50.978;11.034;2022-08-19T14:35:09;24.40;82.90
25058;DHT22;13057;50.978;11.034;2022-08-19T14:37:38;24.50;83.50
25058;DHT22;13057;50.978;11.034;2022-08-19T14:40:04;24.50;83.20
25058;DHT22;13057;50.978;11.034;2022-08-19T14:42:30;24.50;83.10
25058;DHT22;13057;50.978;11.034;2022-08-19T14:44:58;24.50;82.50
25058;DHT22;13057;50.978;11.034;2022-08-19T14:47:25;24.50;83.10
25058;DHT22;13057;50.978;11.034;2022-08-19T14:49:53;24.50;83.20
25058;DHT22;13057;50.978;11.034;2022-08-19T14:52:19;24.50;83.70
25058;DHT22;13057;50.978;11.034;2022-08-19T14:54:45;24.50;83.00
25058;DHT22;13057;50.978;11.034;2022-08-19T14:57:13;24.50;83.20
25058;DHT22;13057;50.978;11.034;2022-08-19T14:59:41;24.50;83.10
25058;DHT22;13057;50.978;11.034;2022-08-19T15:02:07;24.50;83.10
25058;DHT22;13057;50.978;11.034;2022-08-19T15:04:33;24.50;82.50
25058;DHT22;13057;50.978;11.034;2022-08-19T15:06:59;24.50;82.90
25058;DHT22;13057;50.978;11.034;2022-08-19T15:09:25;24.50;82.40
25058;DHT22;13057;50.978;11.034;2022-08-19T15:11:51;24.50;83.00
25058;DHT22;13057;50.978;11.034;2022-08-19T15:14:16;24.50;83.10
25058;DHT22;13057;50.978;11.034;2022-08-19T15:16:43;24.50;82.90
25058;DHT22;13057;50.978;11.034;2022-08-19T15:19:09;24.50;82.80
25058;DHT22;13057;50.978;11.034;2022-08-19T15:21:38;24.50;82.90